createdAt,value
2023-04-07T00:00:08.882Z,96136.79
2023-04-07T00:03:17.749Z,96134.84
2023-04-07T00:06:05.047Z,96138.58
2023-04-07T00:08:52.066Z,96141.30
2023-04-07T00:11:38.995Z,96141.94
2023-04-07T00:14:25.892Z,96142.55
2023-04-07T00:17:12.900Z,96143.34
2023-04-07T00:19:59.541Z,96136.63
2023-04-07T00:22:46.627Z,96136.42
2023-04-07T00:25:33.837Z,96135.67
2023-04-07T00:28:20.763Z,96131.85
2023-04-07T00:31:08.090Z,96130.66
2023-04-07T00:33:56.269Z,96131.04
2023-04-07T00:36:43.601Z,96128.73
2023-04-07T00:39:30.664Z,96130.20
2023-04-07T00:42:17.895Z,96127.77
2023-04-07T00:45:06.390Z,96125.07
2023-04-07T00:47:53.424Z,96124.95
2023-04-07T00:50:40.671Z,96125.90
2023-04-07T00:53:27.384Z,96124.53
2023-04-07T00:56:14.917Z,96125.03
2023-04-07T00:59:04.552Z,96126.02
2023-04-07T01:02:08.847Z,96126.98
2023-04-07T01:05:12.052Z,96128.88
2023-04-07T01:08:17.044Z,96129.26
2023-04-07T01:11:25.653Z,96127.35
2023-04-07T01:14:16.162Z,96126.98
2023-04-07T01:17:07.115Z,96130.36
2023-04-07T01:20:02.026Z,96129.24
2023-04-07T01:23:02.305Z,96129.12
2023-04-07T01:26:21.899Z,96126.01
2023-04-07T01:29:40.697Z,96125.55
2023-04-07T01:32:28.312Z,96128.84
2023-04-07T01:35:16.671Z,96122.35
2023-04-07T01:38:05.182Z,96123.81
2023-04-07T01:40:53.632Z,96125.63
2023-04-07T01:43:41.717Z,96121.94
2023-04-07T01:46:29.033Z,96121.68
2023-04-07T01:49:16.143Z,96124.05
2023-04-07T01:52:04.863Z,96125.58
2023-04-07T01:54:51.662Z,96127.36
2023-04-07T01:57:38.376Z,96128.69
2023-04-07T02:00:31.901Z,96126.78
2023-04-07T02:03:23.799Z,96126.87
2023-04-07T02:06:15.545Z,96128.80
2023-04-07T02:09:06.872Z,96130.53
2023-04-07T02:11:58.650Z,96128.87
2023-04-07T02:14:46.394Z,96127.08
2023-04-07T02:17:39.512Z,96127.99
2023-04-07T02:20:28.636Z,96126.92
2023-04-07T02:23:16.444Z,96126.18
2023-04-07T02:26:03.436Z,96127.08
2023-04-07T02:28:50.991Z,96129.17
2023-04-07T02:31:38.254Z,96126.10
2023-04-07T02:34:24.881Z,96125.23
2023-04-07T02:37:11.759Z,96129.96
2023-04-07T02:39:58.538Z,96135.02
2023-04-07T02:42:46.650Z,96133.48
2023-04-07T02:45:33.359Z,96135.73
2023-04-07T02:48:20.603Z,96135.52
2023-04-07T02:51:07.406Z,96138.29
2023-04-07T02:53:55.232Z,96137.75
2023-04-07T02:56:42.257Z,96136.63
2023-04-07T02:59:29.250Z,96139.98
2023-04-07T03:02:16.164Z,96138.75
2023-04-07T03:05:04.662Z,96140.52
2023-04-07T03:07:51.751Z,96145.05
2023-04-07T03:10:38.674Z,96144.75
2023-04-07T03:13:26.791Z,96144.63
2023-04-07T03:16:13.846Z,96146.66
2023-04-07T03:19:09.705Z,96147.69
2023-04-07T03:21:59.749Z,96149.55
2023-04-07T03:24:46.968Z,96150.59
2023-04-07T03:27:35.650Z,96154.08
2023-04-07T03:30:22.976Z,96153.11
2023-04-07T03:33:10.345Z,96155.53
2023-04-07T03:35:57.734Z,96156.72
2023-04-07T03:38:47.965Z,96159.05
2023-04-07T03:41:36.145Z,96161.52
2023-04-07T03:44:23.134Z,96168.14
2023-04-07T03:47:11.085Z,96171.27
2023-04-07T03:49:58.498Z,96173.83
2023-04-07T03:52:45.168Z,96179.83
2023-04-07T03:55:41.149Z,96181.27
2023-04-07T03:58:33.380Z,96180.73
2023-04-07T04:01:20.367Z,96180.42
2023-04-07T04:04:08.422Z,96179.77
2023-04-07T04:06:55.863Z,96179.47
2023-04-07T04:10:02.032Z,96180.13
2023-04-07T04:12:53.920Z,96178.64
2023-04-07T04:15:40.856Z,96175.73
2023-04-07T04:18:29.751Z,96182.92
2023-04-07T04:21:17.531Z,96184.08
2023-04-07T04:24:05.297Z,96188.44
2023-04-07T04:26:53.227Z,96190.52
2023-04-07T04:29:40.055Z,96190.88
2023-04-07T04:32:28.981Z,96190.14
2023-04-07T04:35:16.161Z,96195.52
2023-04-07T04:38:11.362Z,96194.55
2023-04-07T04:41:01.651Z,96195.27
2023-04-07T04:43:50.594Z,96195.17
2023-04-07T04:46:41.609Z,96193.96
2023-04-07T04:49:28.257Z,96195.41
2023-04-07T04:52:15.842Z,96199.11
2023-04-07T04:55:03.272Z,96203.78
2023-04-07T04:57:50.177Z,96200.80
2023-04-07T05:00:42.643Z,96198.53
2023-04-07T05:03:30.405Z,96202.64
2023-04-07T05:06:18.607Z,96207.09
2023-04-07T05:09:06.426Z,96208.91
2023-04-07T05:12:02.062Z,96208.16
2023-04-07T05:14:50.702Z,96210.06
2023-04-07T05:17:38.350Z,96216.52
2023-04-07T05:20:26.240Z,96223.56
2023-04-07T05:23:13.398Z,96227.95
2023-04-07T05:26:06.242Z,96222.80
2023-04-07T05:28:52.945Z,96223.09
2023-04-07T05:31:41.871Z,96225.73
2023-04-07T05:34:31.701Z,96228.73
2023-04-07T05:37:19.012Z,96229.96
2023-04-07T05:40:07.698Z,96233.73
2023-04-07T05:42:54.347Z,96235.35
2023-04-07T05:45:41.533Z,96238.00
2023-04-07T05:48:28.407Z,96240.52
2023-04-07T05:51:15.810Z,96239.86
2023-04-07T05:54:03.930Z,96243.42
2023-04-07T05:56:51.926Z,96244.71
2023-04-07T05:59:39.044Z,96242.84
2023-04-07T06:02:26.308Z,96247.36
2023-04-07T06:05:14.255Z,96250.42
2023-04-07T06:08:01.515Z,96251.08
2023-04-07T06:10:49.256Z,96252.95
2023-04-07T06:13:36.080Z,96252.45
2023-04-07T06:16:23.395Z,96254.89
2023-04-07T06:19:10.401Z,96255.19
2023-04-07T06:21:57.424Z,96252.66
2023-04-07T06:24:44.747Z,96258.30
2023-04-07T06:27:33.202Z,96260.76
2023-04-07T06:30:20.489Z,96258.44
2023-04-07T06:33:07.937Z,96263.36
2023-04-07T06:35:54.738Z,96264.64
2023-04-07T06:38:41.507Z,96265.18
2023-04-07T06:41:28.338Z,96269.06
2023-04-07T06:44:15.599Z,96266.96
2023-04-07T06:47:02.218Z,96270.67
2023-04-07T06:49:49.324Z,96273.70
2023-04-07T06:52:36.433Z,96276.29
2023-04-07T06:55:23.286Z,96279.24
2023-04-07T06:58:10.669Z,96281.71
2023-04-07T07:00:57.519Z,96283.59
2023-04-07T07:03:44.985Z,96289.70
2023-04-07T07:06:33.040Z,96291.80
2023-04-07T07:09:20.035Z,96290.38
2023-04-07T07:12:07.183Z,96287.98
2023-04-07T07:14:54.193Z,96286.95
2023-04-07T07:17:40.903Z,96294.19
2023-04-07T07:20:28.020Z,96299.38
2023-04-07T07:23:14.942Z,96300.86
2023-04-07T07:26:01.649Z,96300.82
2023-04-07T07:28:49.079Z,96302.65
2023-04-07T07:31:36.185Z,96306.84
2023-04-07T07:34:23.091Z,96306.83
2023-04-07T07:37:09.709Z,96309.20
2023-04-07T07:39:56.920Z,96312.71
2023-04-07T07:42:43.843Z,96311.66
2023-04-07T07:45:31.118Z,96314.05
2023-04-07T07:48:18.897Z,96317.01
2023-04-07T07:51:06.129Z,96314.04
2023-04-07T07:53:52.866Z,96316.84
2023-04-07T07:56:40.566Z,96319.65
2023-04-07T07:59:27.889Z,96319.55
2023-04-07T08:02:14.565Z,96321.06
2023-04-07T08:05:01.553Z,96324.56
2023-04-07T08:07:49.036Z,96326.73
2023-04-07T08:10:35.969Z,96325.52
2023-04-07T08:13:23.172Z,96327.34
2023-04-07T08:16:10.047Z,96330.31
2023-04-07T08:18:57.098Z,96330.80
2023-04-07T08:21:44.011Z,96331.22
2023-04-07T08:24:31.436Z,96331.42
2023-04-07T08:27:18.146Z,96329.57
2023-04-07T08:30:09.573Z,96326.05
2023-04-07T08:32:57.028Z,96327.03
2023-04-07T08:35:43.976Z,96329.04
2023-04-07T08:38:31.641Z,96328.09
2023-04-07T08:41:25.000Z,96328.90
2023-04-07T08:44:13.521Z,96326.80
2023-04-07T08:47:03.972Z,96327.75
2023-04-07T08:49:53.144Z,96328.13
2023-04-07T08:52:45.763Z,96327.00
2023-04-07T08:55:32.983Z,96328.83
2023-04-07T08:58:21.122Z,96326.05
2023-04-07T09:01:09.721Z,96325.98
2023-04-07T09:04:00.918Z,96328.65
2023-04-07T09:06:47.960Z,96324.35
2023-04-07T09:09:34.837Z,96329.73
2023-04-07T09:12:21.730Z,96330.57
2023-04-07T09:15:09.132Z,96331.83
2023-04-07T09:17:57.456Z,96329.46
2023-04-07T09:21:01.871Z,96329.48
2023-04-07T09:23:49.736Z,96332.11
2023-04-07T09:26:37.190Z,96333.03
2023-04-07T09:29:24.096Z,96329.38
2023-04-07T09:32:12.430Z,96330.40
2023-04-07T09:35:00.581Z,96329.40
2023-04-07T09:38:08.511Z,96332.94
2023-04-07T09:41:07.729Z,96329.19
2023-04-07T09:43:58.461Z,96329.88
2023-04-07T09:46:56.857Z,96330.88
2023-04-07T09:49:54.892Z,96331.56
2023-04-07T09:52:52.673Z,96329.80
2023-04-07T09:55:43.299Z,96332.38
2023-04-07T09:58:30.541Z,96332.59
2023-04-07T10:01:18.433Z,96335.23
2023-04-07T10:04:05.824Z,96336.38
2023-04-07T10:06:56.537Z,96338.34
2023-04-07T10:09:43.960Z,96337.80
2023-04-07T10:12:37.026Z,96338.99
2023-04-07T10:15:24.076Z,96340.73
2023-04-07T10:18:11.747Z,96342.30
2023-04-07T10:21:02.123Z,96343.21
2023-04-07T10:24:08.716Z,96348.33
2023-04-07T10:27:01.765Z,96350.02
2023-04-07T10:29:51.752Z,96349.52
2023-04-07T10:32:47.274Z,96348.55
2023-04-07T10:36:08.451Z,96348.10
2023-04-07T10:39:07.601Z,96348.56
2023-04-07T10:41:54.215Z,96350.63
2023-04-07T10:44:41.120Z,96347.52
2023-04-07T10:47:28.594Z,96346.23
2023-04-07T10:50:23.732Z,96345.79
2023-04-07T10:53:12.919Z,96350.65
2023-04-07T10:56:00.040Z,96351.40
2023-04-07T10:58:46.975Z,96353.11
2023-04-07T11:01:34.946Z,96355.40
2023-04-07T11:04:22.374Z,96353.95
2023-04-07T11:07:10.568Z,96357.80
2023-04-07T11:10:16.089Z,96362.73
2023-04-07T11:13:09.661Z,96360.67
2023-04-07T11:15:56.850Z,96361.80
2023-04-07T11:18:46.180Z,96362.30
2023-04-07T11:21:33.290Z,96361.84
2023-04-07T11:24:39.417Z,96362.30
2023-04-07T11:27:27.487Z,96364.88
2023-04-07T11:30:17.911Z,96363.67
2023-04-07T11:33:05.105Z,96363.46
2023-04-07T11:35:53.841Z,96367.17
2023-04-07T11:38:41.484Z,96366.56
2023-04-07T11:41:30.754Z,96370.11
2023-04-07T11:44:17.740Z,96369.08
2023-04-07T11:47:05.573Z,96368.80
2023-04-07T11:49:52.516Z,96366.70
2023-04-07T11:52:47.272Z,96370.14
2023-04-07T11:55:34.024Z,96369.16
2023-04-07T11:58:21.866Z,96370.48
2023-04-07T12:01:09.349Z,96371.90
2023-04-07T12:04:00.612Z,96366.77
2023-04-07T12:06:48.839Z,96368.44
2023-04-07T12:09:36.581Z,96372.70
2023-04-07T12:12:28.621Z,96376.42
2023-04-07T12:15:16.778Z,96370.80
2023-04-07T12:18:04.312Z,96374.14
2023-04-07T12:20:51.800Z,96373.89
2023-04-07T12:23:38.622Z,96373.30
2023-04-07T12:26:25.953Z,96375.34
2023-04-07T12:29:12.857Z,96377.04
2023-04-07T12:31:59.898Z,96378.58
2023-04-07T12:34:48.032Z,96378.78
2023-04-07T12:37:35.968Z,96376.00
2023-04-07T12:40:26.340Z,96377.33
2023-04-07T12:43:13.057Z,96378.73
2023-04-07T12:46:00.009Z,96382.15
2023-04-07T12:48:47.949Z,96380.55
2023-04-07T12:51:34.924Z,96380.71
2023-04-07T12:54:22.250Z,96382.07
2023-04-07T12:57:09.058Z,96384.26
2023-04-07T12:59:56.069Z,96385.95
2023-04-07T13:02:43.915Z,96387.27
2023-04-07T13:05:30.926Z,96385.73
2023-04-07T13:08:17.997Z,96388.70
2023-04-07T13:11:05.058Z,96386.85
2023-04-07T13:13:53.212Z,96389.00
2023-04-07T13:16:42.692Z,96387.52
2023-04-07T13:19:30.794Z,96388.70
2023-04-07T13:22:21.591Z,96393.34
2023-04-07T13:25:09.672Z,96399.15
2023-04-07T13:27:56.787Z,96399.33
2023-04-07T13:30:44.398Z,96401.55
2023-04-07T13:33:31.506Z,96404.80
2023-04-07T13:36:19.105Z,96397.13
2023-04-07T13:39:07.990Z,96402.27
2023-04-07T13:41:54.642Z,96401.31
2023-04-07T13:44:44.006Z,96401.10
2023-04-07T13:47:34.876Z,96403.46
2023-04-07T13:50:21.993Z,96403.33
2023-04-07T13:53:08.702Z,96407.23
2023-04-07T13:55:55.647Z,96408.87
2023-04-07T13:58:43.286Z,96413.30
2023-04-07T14:01:30.280Z,96412.27
2023-04-07T14:04:17.384Z,96413.14
2023-04-07T14:07:04.241Z,96414.87
2023-04-07T14:09:51.251Z,96415.37
2023-04-07T14:12:38.357Z,96417.64
2023-04-07T14:15:25.468Z,96422.27
2023-04-07T14:18:12.485Z,96417.97
2023-04-07T14:21:00.630Z,96420.65
2023-04-07T14:23:47.715Z,96421.97
2023-04-07T14:26:34.651Z,96426.61
2023-04-07T14:29:22.488Z,96424.69
2023-04-07T14:32:09.506Z,96422.60
2023-04-07T14:34:56.936Z,96423.59
2023-04-07T14:37:43.435Z,96425.64
2023-04-07T14:40:30.156Z,96422.02
2023-04-07T14:43:16.967Z,96423.95
2023-04-07T14:46:04.271Z,96427.09
2023-04-07T14:48:52.625Z,96427.59
2023-04-07T14:51:39.740Z,96430.56
2023-04-07T14:54:26.580Z,96434.33
2023-04-07T14:57:13.362Z,96436.59
2023-04-07T15:00:00.282Z,96434.61
2023-04-07T15:02:47.224Z,96436.19
2023-04-07T15:05:34.628Z,96438.48
2023-04-07T15:08:21.638Z,96442.11
2023-04-07T15:11:09.070Z,96439.46
2023-04-07T15:13:56.386Z,96443.76
2023-04-07T15:16:43.207Z,96444.02
2023-04-07T15:19:30.521Z,96442.33
2023-04-07T15:22:17.218Z,96444.50
2023-04-07T15:25:04.833Z,96445.02
2023-04-07T15:27:51.787Z,96442.85
2023-04-07T15:30:38.643Z,96445.91
2023-04-07T15:33:25.803Z,96446.23
2023-04-07T15:36:12.869Z,96446.52
2023-04-07T15:39:04.516Z,96452.36
2023-04-07T15:41:51.626Z,96448.44
2023-04-07T15:44:40.137Z,96451.52
2023-04-07T15:47:27.040Z,96452.11
2023-04-07T15:50:13.945Z,96452.29
2023-04-07T15:53:00.846Z,96453.41
2023-04-07T15:55:47.978Z,96459.24
2023-04-07T15:58:35.204Z,96460.89
2023-04-07T16:01:22.229Z,96464.06
2023-04-07T16:04:09.220Z,96466.48
2023-04-07T16:06:56.246Z,96466.06
2023-04-07T16:09:43.250Z,96467.98
2023-04-07T16:12:30.370Z,96472.77
2023-04-07T16:15:28.885Z,96474.38
2023-04-07T16:18:24.271Z,96476.59
2023-04-07T16:21:11.534Z,96478.98
2023-04-07T16:23:58.510Z,96478.80
2023-04-07T16:26:50.549Z,96479.71
2023-04-07T16:29:37.464Z,96480.85
2023-04-07T16:32:24.486Z,96485.09
2023-04-07T16:35:13.130Z,96487.00
2023-04-07T16:38:04.278Z,96489.81
2023-04-07T16:41:03.364Z,96494.43
2023-04-07T16:43:51.505Z,96498.64
2023-04-07T16:46:39.022Z,96501.05
2023-04-07T16:49:26.322Z,96502.52
2023-04-07T16:52:13.649Z,96503.65
2023-04-07T16:55:00.877Z,96507.61
2023-04-07T16:57:49.504Z,96509.14
2023-04-07T17:00:36.342Z,96506.10
2023-04-07T17:03:23.687Z,96506.07
2023-04-07T17:06:10.887Z,96510.65
2023-04-07T17:08:57.794Z,96513.98
2023-04-07T17:11:44.810Z,96515.45
2023-04-07T17:14:31.913Z,96522.79
2023-04-07T17:17:19.094Z,96524.30
2023-04-07T17:20:07.281Z,96528.13
2023-04-07T17:22:53.910Z,96531.10
2023-04-07T17:25:41.017Z,96534.32
2023-04-07T17:28:30.294Z,96534.69
2023-04-07T17:31:16.920Z,96535.73
2023-04-07T17:34:04.108Z,96540.38
2023-04-07T17:36:51.751Z,96543.19
2023-04-07T17:39:38.557Z,96548.88
2023-04-07T17:42:25.559Z,96552.55
2023-04-07T17:45:12.789Z,96555.14
2023-04-07T17:48:03.785Z,96557.54
2023-04-07T17:50:51.122Z,96562.48
2023-04-07T17:53:37.721Z,96564.73
2023-04-07T17:56:24.712Z,96572.24
2023-04-07T17:59:11.927Z,96571.85
2023-04-07T18:01:58.788Z,96571.61
2023-04-07T18:04:46.842Z,96575.86
2023-04-07T18:07:33.942Z,96577.58
2023-04-07T18:10:20.956Z,96580.66
2023-04-07T18:13:07.563Z,96583.27
2023-04-07T18:15:54.402Z,96586.02
2023-04-07T18:18:41.816Z,96589.09
2023-04-07T18:21:29.591Z,96590.33
2023-04-07T18:24:17.769Z,96590.59
2023-04-07T18:27:05.204Z,96595.15
2023-04-07T18:29:52.424Z,96599.08
2023-04-07T18:32:39.037Z,96598.91
2023-04-07T18:35:26.112Z,96596.39
2023-04-07T18:38:12.943Z,96597.34
2023-04-07T18:41:01.400Z,96600.65
2023-04-07T18:43:48.887Z,96600.89
2023-04-07T18:46:39.265Z,96607.05
2023-04-07T18:49:28.426Z,96607.00
2023-04-07T18:52:15.608Z,96608.27
2023-04-07T18:55:02.945Z,96611.45
2023-04-07T18:57:50.255Z,96610.60
2023-04-07T19:00:37.304Z,96614.80
2023-04-07T19:03:25.720Z,96614.40
2023-04-07T19:06:17.139Z,96616.98
2023-04-07T19:09:04.663Z,96615.96
2023-04-07T19:11:52.593Z,96618.46
2023-04-07T19:14:39.431Z,96617.73
2023-04-07T19:17:26.886Z,96616.71
2023-04-07T19:20:13.853Z,96618.02
2023-04-07T19:23:01.965Z,96618.80
2023-04-07T19:25:48.930Z,96620.35
2023-04-07T19:28:35.715Z,96621.99
2023-04-07T19:31:23.312Z,96618.27
2023-04-07T19:34:10.573Z,96622.88
2023-04-07T19:36:58.629Z,96622.91
2023-04-07T19:40:01.724Z,96622.14
2023-04-07T19:42:53.540Z,96626.04
2023-04-07T19:45:40.485Z,96625.23
2023-04-07T19:48:28.310Z,96628.47
2023-04-07T19:51:15.559Z,96628.04
2023-04-07T19:54:05.485Z,96628.45
2023-04-07T19:56:51.941Z,96630.79
2023-04-07T19:59:39.114Z,96632.22
2023-04-07T20:02:26.391Z,96631.70
2023-04-07T20:05:13.354Z,96634.35
2023-04-07T20:08:01.745Z,96636.16
2023-04-07T20:10:51.896Z,96632.04
2023-04-07T20:13:42.607Z,96629.77
2023-04-07T20:16:32.360Z,96633.91
2023-04-07T20:19:18.971Z,96633.96
2023-04-07T20:22:06.579Z,96634.90
2023-04-07T20:24:53.074Z,96632.60
2023-04-07T20:27:40.037Z,96634.98
2023-04-07T20:30:26.780Z,96635.76
2023-04-07T20:33:14.144Z,96636.69
2023-04-07T20:36:00.997Z,96637.66
2023-04-07T20:38:48.228Z,96636.62
2023-04-07T20:41:35.814Z,96638.02
2023-04-07T20:44:22.859Z,96638.88
2023-04-07T20:47:11.066Z,96638.55
2023-04-07T20:49:57.571Z,96642.33
2023-04-07T20:52:44.508Z,96641.09
2023-04-07T20:55:31.702Z,96639.20
2023-04-07T20:58:18.741Z,96642.08
2023-04-07T21:01:05.651Z,96643.36
2023-04-07T21:03:53.994Z,96643.08
2023-04-07T21:06:43.992Z,96647.45
2023-04-07T21:09:30.905Z,96649.33
2023-04-07T21:12:17.824Z,96647.42
2023-04-07T21:15:05.252Z,96648.75
2023-04-07T21:17:52.294Z,96649.50
2023-04-07T21:20:39.481Z,96648.69
2023-04-07T21:23:26.303Z,96649.86
2023-04-07T21:26:13.607Z,96651.30
2023-04-07T21:29:00.427Z,96651.85
2023-04-07T21:31:48.219Z,96653.23
2023-04-07T21:34:35.062Z,96652.59
2023-04-07T21:37:23.214Z,96653.33
2023-04-07T21:40:10.633Z,96655.73
2023-04-07T21:42:57.877Z,96657.82
2023-04-07T21:45:47.015Z,96657.95
2023-04-07T21:48:34.960Z,96653.65
2023-04-07T21:51:21.576Z,96655.39
2023-04-07T21:54:08.355Z,96654.52
2023-04-07T21:56:55.517Z,96657.05
2023-04-07T21:59:42.209Z,96660.31
2023-04-07T22:02:29.693Z,96660.04
2023-04-07T22:05:17.787Z,96658.71
2023-04-07T22:08:05.617Z,96659.17
2023-04-07T22:10:52.971Z,96661.29
2023-04-07T22:13:39.848Z,96662.79
2023-04-07T22:16:27.062Z,96667.10
2023-04-07T22:19:14.086Z,96661.16
2023-04-07T22:22:01.098Z,96662.29
2023-04-07T22:24:48.064Z,96666.97
2023-04-07T22:27:35.539Z,96662.33
2023-04-07T22:30:24.691Z,96660.91
2023-04-07T22:33:11.521Z,96659.92
2023-04-07T22:35:58.784Z,96662.66
2023-04-07T22:38:45.761Z,96665.80
2023-04-07T22:41:32.987Z,96661.73
2023-04-07T22:44:20.194Z,96662.59
2023-04-07T22:47:07.892Z,96663.71
2023-04-07T22:49:54.606Z,96663.68
2023-04-07T22:52:41.758Z,96666.05
2023-04-07T22:55:29.581Z,96666.21
2023-04-07T22:58:16.820Z,96661.94
2023-04-07T23:01:04.347Z,96660.14
2023-04-07T23:03:51.472Z,96661.84
2023-04-07T23:06:40.731Z,96660.67
2023-04-07T23:09:27.843Z,96659.35
2023-04-07T23:12:14.746Z,96657.00
2023-04-07T23:15:01.763Z,96656.00
2023-04-07T23:17:48.462Z,96658.32
2023-04-07T23:20:36.219Z,96655.45
2023-04-07T23:23:22.781Z,96656.90
2023-04-07T23:26:09.438Z,96655.84
2023-04-07T23:28:56.544Z,96656.17
2023-04-07T23:31:43.383Z,96660.31
2023-04-07T23:34:30.164Z,96657.97
2023-04-07T23:37:17.206Z,96657.79
2023-04-07T23:40:06.386Z,96658.20
2023-04-07T23:42:53.675Z,96661.05
2023-04-07T23:45:40.821Z,96661.90
2023-04-07T23:48:27.812Z,96662.11
2023-04-07T23:51:14.760Z,96657.86
2023-04-07T23:54:01.432Z,96658.29
2023-04-07T23:56:48.453Z,96657.02
2023-04-07T23:59:35.676Z,96657.21
